Time;durP1;ratioP1;P1;durP2;ratioP2;P2;SDS_P1;SDS_P2;PMS_P1;PMS_P2;Temp;Humidity;BMP_temperature;BMP_pressure;BME280_temperature;BME280_humidity;BME280_pressure;Samples;Min_cycle;Max_cycle;Signal;HPM_P1;HPM_P2
2023/01/16 00:00:57;;;;;;;11.50;7.20;;;;;;;3.47;100.00;97167.05;106633;1252;59915;-76
2023/01/16 00:03:30;;;;;;;10.40;5.40;;;;;;;3.44;100.00;97165.27;106641;1252;74573;-78
2023/01/16 00:05:57;;;;;;;7.00;5.30;;;;;;;3.43;100.00;97162.80;106573;1254;60927;-80
2023/01/16 00:08:23;;;;;;;11.10;6.20;;;;;;;3.43;100.00;97161.86;106646;1254;61227;-78
2023/01/16 00:10:49;;;;;;;10.60;5.10;;;;;;;3.41;100.00;97162.61;106597;1256;62100;-78
2023/01/16 00:13:16;;;;;;;16.60;8.10;;;;;;;3.39;100.00;97159.59;106670;1253;60808;-79
2023/01/16 00:15:46;;;;;;;24.10;16.10;;;;;;;3.33;100.00;97157.29;106616;1254;60299;-79
2023/01/16 00:18:13;;;;;;;16.50;11.30;;;;;;;3.30;100.00;97153.73;106516;1252;69771;-76
2023/01/16 00:20:39;;;;;;;10.40;7.00;;;;;;;3.25;100.00;97154.60;106648;1254;61884;-77
2023/01/16 00:23:05;;;;;;;14.80;7.40;;;;;;;3.23;100.00;97154.40;106722;1254;60026;-76
2023/01/16 00:25:32;;;;;;;21.00;10.30;;;;;;;3.22;100.00;97147.32;106653;1253;59754;-76
2023/01/16 00:27:58;;;;;;;19.10;9.10;;;;;;;3.20;100.00;97137.84;106687;1254;61407;-78
2023/01/16 00:30:25;;;;;;;11.10;5.20;;;;;;;3.18;100.00;97150.29;106616;1257;59899;-76
2023/01/16 00:32:51;;;;;;;24.00;15.20;;;;;;;3.13;100.00;97147.08;106616;1253;62139;-76
2023/01/16 00:35:17;;;;;;;21.40;13.00;;;;;;;3.11;100.00;97144.60;106488;1254;60890;-78
2023/01/16 00:37:44;;;;;;;11.40;7.80;;;;;;;3.06;100.00;97143.30;106641;1254;59944;-78
2023/01/16 00:40:10;;;;;;;12.50;8.10;;;;;;;3.00;100.00;97148.35;106550;1252;62140;-76
2023/01/16 00:42:37;;;;;;;11.80;7.40;;;;;;;2.97;100.00;97153.28;106641;1254;60980;-78
2023/01/16 00:45:03;;;;;;;7.50;4.10;;;;;;;2.95;100.00;97157.88;106620;1253;59892;-76
2023/01/16 00:47:30;;;;;;;5.60;3.70;;;;;;;2.88;100.00;97152.92;106664;1253;59898;-76
2023/01/16 00:49:56;;;;;;;5.60;2.80;;;;;;;2.82;100.00;97150.45;106592;1252;61224;-76
2023/01/16 00:52:23;;;;;;;19.70;11.70;;;;;;;2.75;100.00;97147.86;106632;1254;61091;-79
2023/01/16 00:54:49;;;;;;;8.00;4.80;;;;;;;2.74;100.00;97152.88;106614;1256;61930;-76
2023/01/16 00:57:16;;;;;;;6.40;3.80;;;;;;;2.70;100.00;97155.02;106637;1254;60884;-78
2023/01/16 00:59:42;;;;;;;12.10;7.40;;;;;;;2.68;100.00;97157.69;106605;1254;59892;-78
2023/01/16 01:02:08;;;;;;;19.00;11.90;;;;;;;2.67;100.00;97159.55;106638;1253;60852;-77
2023/01/16 01:04:35;;;;;;;9.10;4.70;;;;;;;2.65;100.00;97162.90;106672;1254;61255;-78
2023/01/16 01:07:01;;;;;;;7.00;4.40;;;;;;;2.55;100.00;97157.95;106677;1255;61358;-78
2023/01/16 01:09:28;;;;;;;8.10;4.60;;;;;;;2.43;100.00;97150.20;106657;1252;59918;-78
2023/01/16 01:11:56;;;;;;;12.50;8.70;;;;;;;2.32;100.00;97148.15;106656;1254;59850;-78
2023/01/16 01:14:22;;;;;;;15.40;10.40;;;;;;;2.25;100.00;97145.60;106544;1254;60935;-76
2023/01/16 01:16:49;;;;;;;20.20;13.60;;;;;;;2.20;100.00;97144.25;106605;1254;61212;-78
2023/01/16 01:19:15;;;;;;;21.00;14.10;;;;;;;2.14;100.00;97146.02;106634;1253;62104;-78
2023/01/16 01:21:42;;;;;;;17.90;11.60;;;;;;;2.08;100.00;97145.20;106630;1253;61998;-79
2023/01/16 01:24:08;;;;;;;20.80;12.20;;;;;;;2.01;100.00;97143.77;106631;1254;60744;-78
2023/01/16 01:26:34;;;;;;;17.50;11.40;;;;;;;1.97;100.00;97145.75;106635;1252;61417;-78
2023/01/16 01:29:01;;;;;;;16.10;11.30;;;;;;;1.93;100.00;97140.51;106646;1254;61263;-76
2023/01/16 01:31:28;;;;;;;16.30;11.50;;;;;;;1.89;100.00;97134.89;106551;1253;61305;-78
2023/01/16 01:33:54;;;;;;;24.80;13.90;;;;;;;1.82;100.00;97135.27;106642;1254;61944;-78
2023/01/16 01:36:20;;;;;;;23.20;16.80;;;;;;;1.80;100.00;97137.48;106715;1253;62040;-76
2023/01/16 01:38:49;;;;;;;27.80;17.60;;;;;;;1.76;100.00;97141.43;106635;1254;60469;-78
2023/01/16 01:41:15;;;;;;;15.70;11.60;;;;;;;1.68;100.00;97142.06;106670;1254;74507;-76
2023/01/16 01:43:47;;;;;;;14.10;8.70;;;;;;;1.60;100.00;97145.52;106608;1254;70046;-77
2023/01/16 01:46:44;;;;;;;10.90;6.90;;;;;;;1.54;100.00;97147.23;106485;1254;71870;-76
2023/01/16 01:49:21;;;;;;;12.20;6.50;;;;;;;1.44;100.00;97140.14;106429;1254;62015;-77
2023/01/16 01:51:47;;;;;;;11.00;7.90;;;;;;;1.34;100.00;97133.67;106617;1254;60845;-76
2023/01/16 01:54:22;;;;;;;14.70;7.60;;;;;;;1.30;100.00;97134.31;106659;1254;60146;-78
2023/01/16 01:56:54;;;;;;;14.80;8.80;;;;;;;1.29;100.00;97132.65;106515;1253;69819;-78
2023/01/16 01:59:29;;;;;;;19.80;12.10;;;;;;;1.28;100.00;97132.55;106589;1257;72555;-77
2023/01/16 02:01:55;;;;;;;29.60;13.80;;;;;;;1.24;100.00;97122.57;106526;1253;61251;-78
2023/01/16 02:04:25;;;;;;;16.50;9.20;;;;;;;1.20;100.00;97114.02;106489;1253;62114;-77
2023/01/16 02:06:55;;;;;;;13.10;7.50;;;;;;;1.16;100.00;97115.43;106634;1253;74452;-77
2023/01/16 02:09:22;;;;;;;8.70;5.30;;;;;;;1.13;100.00;97116.20;106549;1253;71109;-77
2023/01/16 02:11:53;;;;;;;10.80;5.60;;;;;;;1.11;100.00;97112.33;106570;1253;72907;-77
2023/01/16 02:14:19;;;;;;;11.30;5.80;;;;;;;1.11;100.00;97104.41;106581;1253;60006;-77
2023/01/16 02:19:42;;;;;;;13.40;9.20;;;;;;;1.17;100.00;97096.59;106461;1253;75041;-76
2023/01/16 02:22:23;;;;;;;12.90;9.40;;;;;;;1.21;100.00;97092.61;106486;1253;70433;-77
2023/01/16 02:25:00;;;;;;;12.50;8.20;;;;;;;1.24;100.00;97090.39;106509;1257;72881;-78
2023/01/16 02:28:00;;;;;;;16.10;10.10;;;;;;;1.23;100.00;97087.00;106496;1253;60135;-78
2023/01/16 02:30:35;;;;;;;14.50;9.20;;;;;;;1.18;100.00;97080.88;106409;1254;61326;-78
2023/01/16 02:33:13;;;;;;;14.60;8.80;;;;;;;1.14;100.00;97088.02;106447;1254;74896;-77
2023/01/16 02:35:58;;;;;;;12.70;8.10;;;;;;;1.06;100.00;97089.77;106442;1254;71088;-77
2023/01/16 02:38:53;;;;;;;11.30;6.90;;;;;;;0.96;100.00;97091.42;106447;1253;72564;-76
2023/01/16 02:41:49;;;;;;;8.40;6.00;;;;;;;0.94;100.00;97089.09;106510;1255;59781;-78
2023/01/16 02:44:45;;;;;;;15.20;8.70;;;;;;;0.97;100.00;97092.77;106479;1254;60212;-78
2023/01/16 02:47:38;;;;;;;10.40;7.10;;;;;;;0.99;100.00;97094.13;106529;1254;73470;-77
2023/01/16 02:50:14;;;;;;;15.40;7.70;;;;;;;1.03;100.00;97095.28;106441;1255;69924;-77
2023/01/16 02:52:59;;;;;;;13.40;9.20;;;;;;;1.06;100.00;97091.20;106429;1258;71580;-78
2023/01/16 02:55:40;;;;;;;16.10;9.60;;;;;;;1.04;100.00;97087.39;106458;1255;61214;-78
2023/01/16 02:58:06;;;;;;;14.20;7.80;;;;;;;0.99;100.00;97080.79;106589;1255;60988;-77
2023/01/16 03:00:33;;;;;;;11.70;7.60;;;;;;;0.94;100.00;97081.55;106509;1254;60854;-76
2023/01/16 03:03:00;;;;;;;17.30;10.80;;;;;;;0.91;100.00;97080.91;106503;1257;71054;-78
2023/01/16 03:05:27;;;;;;;20.80;11.60;;;;;;;0.85;100.00;97074.89;106613;1256;59874;-78
2023/01/16 03:07:58;;;;;;;13.80;6.30;;;;;;;0.82;100.00;97073.23;106729;1252;61384;-78
2023/01/16 03:10:58;;;;;;;22.10;13.70;;;;;;;0.93;100.00;97069.79;106670;1254;61675;-77
2023/01/16 03:13:38;;;;;;;15.90;9.80;;;;;;;1.12;100.00;97067.77;106666;1254;74574;-77
2023/01/16 03:16:43;;;;;;;18.30;9.90;;;;;;;1.08;100.00;97060.92;106660;1252;71037;-78
2023/01/16 03:19:13;;;;;;;16.20;9.40;;;;;;;1.03;100.00;97056.20;105964;1260;72709;-78
2023/01/16 03:21:58;;;;;;;13.30;7.90;;;;;;;1.00;100.00;97052.98;106480;1253;60025;-77
2023/01/16 03:24:42;;;;;;;12.70;7.70;;;;;;;0.92;100.00;97043.64;106670;1254;59815;-78
2023/01/16 03:27:28;;;;;;;18.70;12.20;;;;;;;0.80;100.00;97040.50;106675;1254;74443;-78
2023/01/16 03:30:11;;;;;;;36.00;12.70;;;;;;;0.65;100.00;97042.06;106621;1254;71506;-78
2023/01/16 03:32:42;;;;;;;18.30;11.10;;;;;;;0.57;100.00;97039.95;106540;1254;71457;-76
2023/01/16 03:35:14;;;;;;;20.80;12.40;;;;;;;0.46;100.00;97038.11;106458;1254;60739;-76
2023/01/16 03:37:53;;;;;;;16.50;9.90;;;;;;;0.39;100.00;97037.44;106687;1254;59853;-77
2023/01/16 03:40:22;;;;;;;19.90;9.40;;;;;;;0.36;100.00;97038.71;106560;1253;73518;-79
2023/01/16 03:43:04;;;;;;;19.50;9.50;;;;;;;0.38;100.00;97038.85;106550;1254;71054;-78
2023/01/16 03:45:40;;;;;;;14.50;8.10;;;;;;;0.39;100.00;97046.17;106467;1253;71439;-77
2023/01/16 03:48:20;;;;;;;15.00;9.40;;;;;;;0.37;100.00;97043.10;106514;1251;62006;-77
2023/01/16 03:50:57;;;;;;;23.30;14.20;;;;;;;0.29;100.00;97040.98;106544;1254;59805;-76
2023/01/16 03:53:25;;;;;;;29.80;14.90;;;;;;;0.26;100.00;97034.31;106649;1253;72926;-77
2023/01/16 03:56:09;;;;;;;19.80;11.00;;;;;;;0.25;100.00;97026.14;106691;1253;70919;-77
2023/01/16 03:58:36;;;;;;;15.00;9.50;;;;;;;0.28;100.00;97020.17;106420;1259;71514;-78
2023/01/16 04:01:11;;;;;;;17.60;10.30;;;;;;;0.28;100.00;97014.48;106646;1252;61307;-77
2023/01/16 04:03:44;;;;;;;12.20;7.70;;;;;;;0.30;100.00;97014.02;106614;1254;60851;-77
2023/01/16 04:06:16;;;;;;;11.80;7.50;;;;;;;0.35;100.00;97003.98;106539;1253;73440;-77
2023/01/16 04:08:43;;;;;;;13.20;8.10;;;;;;;0.41;100.00;97000.21;106549;1254;68978;-78
2023/01/16 04:11:09;;;;;;;17.00;9.60;;;;;;;0.45;100.00;96997.58;106500;1254;61214;-77
2023/01/16 04:13:37;;;;;;;18.30;12.70;;;;;;;0.51;100.00;96994.61;106613;1254;61989;-77
2023/01/16 04:16:06;;;;;;;16.40;9.10;;;;;;;0.50;100.00;96995.52;106740;1254;59798;-78
2023/01/16 04:18:33;;;;;;;23.60;14.10;;;;;;;0.49;100.00;97002.85;106551;1254;74520;-77
2023/01/16 04:21:00;;;;;;;21.50;14.40;;;;;;;0.52;100.00;97004.55;106472;1254;69979;-78
2023/01/16 04:23:27;;;;;;;23.60;15.60;;;;;;;0.53;100.00;96995.58;106662;1253;72543;-77
2023/01/16 04:25:53;;;;;;;25.20;15.10;;;;;;;0.52;100.00;96991.88;106640;1253;61207;-78
2023/01/16 04:28:20;;;;;;;23.50;13.00;;;;;;;0.51;100.00;96991.02;106619;1253;59803;-78
2023/01/16 04:30:46;;;;;;;25.10;14.10;;;;;;;0.52;100.00;96998.33;106657;1253;61001;-77
2023/01/16 04:33:13;;;;;;;25.90;13.30;;;;;;;0.50;100.00;96996.90;106688;1253;60002;-77
2023/01/16 04:35:39;;;;;;;18.00;10.90;;;;;;;0.49;100.00;97000.56;106498;1254;61320;-78
2023/01/16 04:38:05;;;;;;;23.30;14.60;;;;;;;0.47;100.00;96999.72;106673;1254;62037;-77
2023/01/16 04:40:32;;;;;;;45.10;22.40;;;;;;;0.44;100.00;96992.77;106550;1253;61385;-78
2023/01/16 04:42:58;;;;;;;26.20;15.80;;;;;;;0.45;100.00;96986.01;106665;1254;61378;-77
2023/01/16 04:45:24;;;;;;;25.40;15.30;;;;;;;0.48;100.00;96984.55;106645;1254;60841;-76
2023/01/16 04:47:51;;;;;;;31.10;16.30;;;;;;;0.50;100.00;96981.91;106668;1253;59880;-76
2023/01/16 04:50:17;;;;;;;29.80;17.10;;;;;;;0.53;100.00;96975.05;106601;1254;61345;-78
2023/01/16 04:52:44;;;;;;;28.50;16.90;;;;;;;0.57;100.00;96981.02;106630;1254;59898;-78
2023/01/16 04:55:11;;;;;;;27.00;18.50;;;;;;;0.58;100.00;96976.92;106674;1254;59909;-78
2023/01/16 04:57:37;;;;;;;25.00;16.20;;;;;;;0.59;100.00;96974.64;106605;1254;61929;-77
2023/01/16 05:00:05;;;;;;;22.90;14.30;;;;;;;0.60;100.00;96967.66;106584;1254;60451;-78
2023/01/16 05:02:31;;;;;;;19.30;12.50;;;;;;;0.60;100.00;96970.04;106626;1254;60923;-78
2023/01/16 05:04:57;;;;;;;22.30;13.20;;;;;;;0.60;100.00;96966.48;106595;1254;59832;-78
2023/01/16 05:07:26;;;;;;;17.50;11.40;;;;;;;0.61;100.00;96965.59;106729;1254;60661;-78
2023/01/16 05:09:53;;;;;;;19.50;10.50;;;;;;;0.64;100.00;96962.80;106571;1254;70966;-76
2023/01/16 05:12:19;;;;;;;15.50;9.30;;;;;;;0.68;100.00;96956.02;106547;1253;72453;-76
2023/01/16 05:14:46;;;;;;;15.20;8.80;;;;;;;0.69;100.00;96952.86;106484;1254;61365;-78
2023/01/16 05:17:12;;;;;;;23.90;12.70;;;;;;;0.72;100.00;96950.29;106632;1254;59972;-78
2023/01/16 05:19:38;;;;;;;18.10;11.60;;;;;;;0.74;100.00;96948.55;106588;1256;62062;-78
2023/01/16 05:22:05;;;;;;;17.10;9.00;;;;;;;0.75;100.00;96947.51;106611;1253;60117;-77
2023/01/16 05:24:31;;;;;;;16.90;8.70;;;;;;;0.77;100.00;96947.92;106605;1252;61047;-78
2023/01/16 05:26:57;;;;;;;12.40;8.90;;;;;;;0.78;100.00;96945.97;106677;1254;61237;-78
2023/01/16 05:29:24;;;;;;;18.30;10.70;;;;;;;0.80;100.00;96950.36;106630;1254;61221;-78
2023/01/16 05:31:50;;;;;;;16.00;9.20;;;;;;;0.82;100.00;96948.36;106656;1256;59830;-77
2023/01/16 05:34:16;;;;;;;13.30;8.60;;;;;;;0.83;100.00;96950.67;106624;1254;61218;-79
2023/01/16 05:36:43;;;;;;;18.70;8.70;;;;;;;0.85;100.00;96950.88;106652;1254;61348;-77
2023/01/16 05:39:09;;;;;;;15.60;9.00;;;;;;;0.87;100.00;96947.33;106578;1253;61803;-77
2023/01/16 05:41:35;;;;;;;19.10;10.80;;;;;;;0.88;100.00;96944.73;106638;1257;60125;-77
2023/01/16 05:44:02;;;;;;;22.00;12.90;;;;;;;0.87;100.00;96934.63;106601;1253;59882;-77
2023/01/16 05:46:29;;;;;;;21.00;12.20;;;;;;;0.88;100.00;96939.70;106640;1254;61297;-78
2023/01/16 05:48:55;;;;;;;26.10;16.80;;;;;;;0.86;100.00;96933.34;106671;1254;61202;-77
2023/01/16 05:51:21;;;;;;;28.70;16.00;;;;;;;0.80;100.00;96929.94;106673;1255;62146;-77
2023/01/16 05:53:51;;;;;;;28.30;17.10;;;;;;;0.76;100.00;96925.87;106644;1254;60816;-77
2023/01/16 05:56:20;;;;;;;28.50;17.30;;;;;;;0.75;100.00;96924.95;106517;1256;74525;-78
2023/01/16 05:58:47;;;;;;;31.60;17.40;;;;;;;0.77;100.00;96922.85;106467;1253;71072;-79
2023/01/16 06:01:13;;;;;;;28.00;16.90;;;;;;;0.78;100.00;96917.70;106652;1253;61215;-78
2023/01/16 06:03:39;;;;;;;31.00;18.10;;;;;;;0.79;100.00;96916.21;106480;1253;61347;-79
2023/01/16 06:06:06;;;;;;;30.70;16.80;;;;;;;0.80;100.00;96914.73;106663;1253;61004;-77
2023/01/16 06:08:32;;;;;;;31.90;19.10;;;;;;;0.79;100.00;96912.75;106639;1256;60810;-77
2023/01/16 06:10:59;;;;;;;28.40;19.40;;;;;;;0.78;100.00;96905.33;106618;1253;61986;-79
2023/01/16 06:13:25;;;;;;;39.20;24.40;;;;;;;0.78;100.00;96903.46;106565;1253;60083;-79
2023/01/16 06:15:51;;;;;;;33.10;20.20;;;;;;;0.79;100.00;96900.90;106603;1253;61338;-78
2023/01/16 06:18:18;;;;;;;40.10;23.80;;;;;;;0.79;100.00;96902.88;106614;1254;61804;-79
2023/01/16 06:20:44;;;;;;;37.40;22.50;;;;;;;0.78;100.00;96899.89;106574;1254;62093;-78
2023/01/16 06:23:11;;;;;;;30.50;19.30;;;;;;;0.80;100.00;96896.12;106639;1253;60923;-77
2023/01/16 06:25:37;;;;;;;33.00;19.10;;;;;;;0.81;100.00;96903.55;106518;1254;59862;-78
2023/01/16 06:28:04;;;;;;;35.10;18.20;;;;;;;0.81;100.00;96906.01;106601;1254;61235;-78
2023/01/16 06:30:30;;;;;;;28.90;18.00;;;;;;;0.84;100.00;96907.64;106624;1255;60818;-78
2023/01/16 06:32:57;;;;;;;32.50;19.20;;;;;;;0.85;100.00;96907.07;106837;1254;62104;-78
2023/01/16 06:35:23;;;;;;;38.40;21.70;;;;;;;0.82;100.00;96901.59;107011;1256;60355;-77
2023/01/16 06:37:49;;;;;;;47.90;28.20;;;;;;;0.84;100.00;96901.13;106522;1253;59873;-77
2023/01/16 06:40:18;;;;;;;45.20;26.90;;;;;;;0.87;100.00;96897.34;106610;1253;59821;-77
2023/01/16 06:42:44;;;;;;;45.50;26.90;;;;;;;0.87;100.00;96894.89;106592;1253;61252;-77
2023/01/16 06:45:11;;;;;;;50.90;30.90;;;;;;;0.88;100.00;96890.47;106660;1254;61209;-77
2023/01/16 06:47:37;;;;;;;36.70;22.60;;;;;;;0.89;100.00;96887.61;106554;1257;59890;-78
2023/01/16 06:50:04;;;;;;;37.10;23.30;;;;;;;0.88;100.00;96881.35;106673;1257;61311;-78
2023/01/16 06:52:30;;;;;;;79.80;50.60;;;;;;;0.91;100.00;96877.80;106734;1254;61215;-77
2023/01/16 06:54:57;;;;;;;84.30;38.30;;;;;;;0.96;100.00;96882.10;106559;1254;60593;-79
2023/01/16 06:57:23;;;;;;;102.50;44.20;;;;;;;0.98;100.00;96879.89;106573;1256;59938;-77
2023/01/16 06:59:50;;;;;;;126.70;55.70;;;;;;;1.02;100.00;96878.02;106548;1253;61210;-77
2023/01/16 07:02:16;;;;;;;82.70;46.20;;;;;;;1.06;100.00;96877.61;106561;1254;143070;-77
2023/01/16 07:04:44;;;;;;;91.30;50.60;;;;;;;1.07;100.00;96875.33;106899;1254;61221;-78
2023/01/16 07:07:10;;;;;;;102.80;55.90;;;;;;;1.09;100.00;96879.28;106886;1253;61253;-77
2023/01/16 07:09:37;;;;;;;99.20;56.30;;;;;;;1.08;100.00;96876.92;106670;1252;59825;-79
2023/01/16 07:12:03;;;;;;;108.20;56.80;;;;;;;1.10;100.00;96872.48;106635;1254;60729;-77
2023/01/16 07:22:45;;;;;;;42.30;27.30;;;;;;;1.08;100.00;96881.04;106664;1252;73501;-78
2023/01/16 07:25:31;;;;;;;38.40;23.90;;;;;;;1.03;100.00;96877.40;106743;1254;70544;-79
2023/01/16 07:27:58;;;;;;;39.10;23.40;;;;;;;1.05;100.00;96882.23;107759;1255;71559;-78
2023/01/16 07:30:24;;;;;;;30.50;19.10;;;;;;;1.02;100.00;96881.65;107114;1256;61697;-79
2023/01/16 07:32:51;;;;;;;35.40;20.60;;;;;;;0.97;100.00;96879.30;106931;1255;59805;-78
2023/01/16 07:35:17;;;;;;;31.80;19.40;;;;;;;0.99;100.00;96877.72;107219;1253;59762;-77
2023/01/16 07:37:45;;;;;;;38.40;21.40;;;;;;;1.01;100.00;96874.21;108273;1253;61218;-79
2023/01/16 07:40:12;;;;;;;37.60;23.30;;;;;;;1.05;100.00;96875.13;108355;1253;72596;-78
2023/01/16 07:42:39;;;;;;;36.40;21.00;;;;;;;1.09;100.00;96875.05;107011;1253;61094;-78
2023/01/16 07:45:05;;;;;;;39.20;25.10;;;;;;;1.13;100.00;96871.61;107345;1254;60793;-76
2023/01/16 07:47:33;;;;;;;48.10;26.00;;;;;;;1.17;100.00;96866.15;107901;1254;74530;-76
2023/01/16 07:50:01;;;;;;;49.20;26.20;;;;;;;1.18;100.00;96865.30;107176;1254;69771;-78
2023/01/16 07:52:27;;;;;;;38.20;22.00;;;;;;;1.19;100.00;96859.98;106785;1254;71379;-77
2023/01/16 07:54:53;;;;;;;32.20;20.10;;;;;;;1.21;100.00;96858.26;106775;1253;61989;-78
2023/01/16 07:57:20;;;;;;;35.50;21.90;;;;;;;1.19;100.00;96850.17;107692;1255;59744;-77
2023/01/16 07:59:46;;;;;;;37.60;23.40;;;;;;;1.17;100.00;96845.13;107925;1254;60782;-77
2023/01/16 08:02:13;;;;;;;43.40;27.00;;;;;;;1.21;100.00;96847.70;106841;1255;62098;-79
2023/01/16 08:04:39;;;;;;;51.70;29.00;;;;;;;1.26;100.00;96841.23;106640;1253;60942;-76
2023/01/16 08:07:06;;;;;;;47.40;28.90;;;;;;;1.31;100.00;96834.11;106850;1254;60391;-78
2023/01/16 08:09:32;;;;;;;48.20;27.80;;;;;;;1.36;100.00;96837.46;107927;1254;59877;-79
2023/01/16 08:11:59;;;;;;;49.30;30.90;;;;;;;1.39;100.00;96830.94;108164;1254;59881;-78
2023/01/16 08:14:25;;;;;;;47.70;29.50;;;;;;;1.40;100.00;96823.57;106872;1254;59807;-77
2023/01/16 08:16:51;;;;;;;49.40;31.70;;;;;;;1.40;100.00;96819.36;107561;1253;60997;-77
2023/01/16 08:19:18;;;;;;;47.10;30.40;;;;;;;1.40;100.00;96816.10;108345;1254;60231;-77
2023/01/16 08:21:44;;;;;;;55.50;33.60;;;;;;;1.42;100.00;96809.34;107137;1256;61360;-77
2023/01/16 08:24:12;;;;;;;71.00;40.40;;;;;;;1.43;100.00;96812.81;107444;1254;61333;-79
2023/01/16 08:26:39;;;;;;;69.40;42.40;;;;;;;1.40;100.00;96804.30;109069;1254;69593;-77
2023/01/16 08:29:05;;;;;;;77.60;43.00;;;;;;;1.38;100.00;96801.67;109158;1254;59708;-79
2023/01/16 08:31:32;;;;;;;90.60;45.70;;;;;;;1.39;100.00;96799.01;107766;1253;59825;-79
2023/01/16 08:33:58;;;;;;;72.00;42.20;;;;;;;1.38;100.00;96788.80;107073;1253;62380;-78
2023/01/16 08:36:25;;;;;;;111.00;57.60;;;;;;;1.40;100.00;96779.09;106879;1252;60913;-77
2023/01/16 08:38:52;;;;;;;85.50;47.10;;;;;;;1.41;100.00;96777.30;108727;1254;72555;-78
2023/01/16 08:52:35;;;;;;;85.30;46.30;;;;;;;1.58;100.00;96760.97;106886;1256;70948;-79
2023/01/16 08:55:02;;;;;;;82.30;48.40;;;;;;;1.66;100.00;96757.25;106627;1254;73913;-78
2023/01/16 08:57:29;;;;;;;87.00;46.60;;;;;;;1.71;100.00;96755.48;107750;1257;60617;-79
2023/01/16 08:59:56;;;;;;;69.40;41.40;;;;;;;1.76;100.00;96746.38;108116;1256;60177;-78
2023/01/16 09:02:23;;;;;;;70.00;42.30;;;;;;;1.79;100.00;96742.46;106799;1253;74805;-78
2023/01/16 09:04:50;;;;;;;68.70;44.00;;;;;;;1.76;100.00;96733.62;106903;1254;70199;-76
2023/01/16 09:07:16;;;;;;;76.80;45.80;;;;;;;1.74;100.00;96728.20;107726;1254;71335;-77
2023/01/16 09:09:43;;;;;;;78.80;46.70;;;;;;;1.80;100.00;96723.19;107925;1254;60824;-77
2023/01/16 09:14:55;;;;;;;63.10;35.90;;;;;;;1.90;100.00;96718.14;106731;1254;74540;-78
2023/01/16 09:17:23;;;;;;;63.30;38.50;;;;;;;1.93;100.00;96718.63;107699;1254;71071;-78
2023/01/16 09:19:50;;;;;;;61.20;37.40;;;;;;;1.99;100.00;96714.89;108172;1255;71686;-78
2023/01/16 09:22:16;;;;;;;56.50;34.40;;;;;;;2.05;100.00;96706.81;106720;1256;60228;-78
2023/01/16 09:24:43;;;;;;;66.10;39.70;;;;;;;2.13;100.00;96695.25;107061;1254;59811;-77
2023/01/16 09:27:09;;;;;;;70.30;42.40;;;;;;;2.13;100.00;96682.70;107637;1255;60355;-77
2023/01/16 09:29:37;;;;;;;80.80;48.80;;;;;;;2.14;100.00;96669.89;108044;1255;59859;-77
2023/01/16 09:32:08;;;;;;;71.40;44.20;;;;;;;2.19;100.00;96656.33;107146;1254;71444;-78
2023/01/16 09:34:38;;;;;;;69.10;42.20;;;;;;;2.25;100.00;96652.41;107359;1254;61912;-77
2023/01/16 09:37:05;;;;;;;64.70;39.60;;;;;;;2.31;100.00;96648.91;107242;1257;59874;-78
2023/01/16 09:39:32;;;;;;;66.10;37.70;;;;;;;2.38;100.00;96639.73;107644;1254;73464;-79
2023/01/16 09:45:06;;;;;;;62.50;38.40;;;;;;;2.62;100.00;96620.38;107028;1254;71877;-78
2023/01/16 09:47:32;;;;;;;59.10;34.70;;;;;;;2.70;100.00;96610.55;107765;1254;59769;-79
2023/01/16 09:50:02;;;;;;;57.50;35.40;;;;;;;2.76;100.00;96600.35;107165;1256;59827;-79
2023/01/16 09:58:35;;;;;;;71.90;45.50;;;;;;;3.06;100.00;96573.42;109027;1252;71223;-77
2023/01/16 10:01:06;;;;;;;108.10;65.20;;;;;;;3.21;100.00;96568.83;107279;1255;59857;-77
2023/01/16 10:03:33;;;;;;;100.10;64.10;;;;;;;3.35;100.00;96566.30;106903;1256;59817;-78
2023/01/16 10:06:23;;;;;;;102.10;66.40;;;;;;;3.44;100.00;96564.33;106807;1254;74622;-79
2023/01/16 10:09:15;;;;;;;92.30;60.90;;;;;;;3.46;100.00;96557.36;108020;1254;71056;-79
2023/01/16 10:11:53;;;;;;;75.30;48.10;;;;;;;3.46;100.00;96548.30;106935;1251;72529;-78
2023/01/16 10:14:38;;;;;;;76.80;46.00;;;;;;;3.44;100.00;96535.95;106859;1254;61154;-79
2023/01/16 10:17:09;;;;;;;58.10;36.90;;;;;;;3.52;100.00;96529.39;107514;1256;59640;-77
2023/01/16 10:19:49;;;;;;;62.10;39.60;;;;;;;3.51;100.00;96520.40;107983;1254;73978;-78
2023/01/16 10:22:28;;;;;;;74.60;50.70;;;;;;;3.58;100.00;96511.86;107050;1256;71066;-79
2023/01/16 10:25:16;;;;;;;80.50;52.90;;;;;;;3.69;100.00;96503.05;106957;1259;71764;-78
2023/01/16 10:28:25;;;;;;;79.50;50.10;;;;;;;3.78;100.00;96496.06;108095;1253;60799;-78
2023/01/16 10:30:54;;;;;;;54.00;33.80;;;;;;;3.90;100.00;96492.85;107235;1257;61035;-79
2023/01/16 10:33:33;;;;;;;43.10;29.40;;;;;;;4.01;100.00;96486.48;106931;1252;74566;-79
2023/01/16 10:35:59;;;;;;;46.60;27.60;;;;;;;4.08;100.00;96479.33;106885;1257;71105;-79
2023/01/16 10:38:41;;;;;;;55.70;31.30;;;;;;;4.17;100.00;96478.86;108743;1254;59847;-77
2023/01/16 10:49:25;;;;;;;65.20;35.50;;;;;;;4.22;100.00;96468.11;107037;1257;61277;-77
2023/01/16 10:49:32;;;;;;;39.30;23.00;;;;;;;4.46;100.00;96459.60;107803;1252;70063;-78
2023/01/16 10:51:59;;;;;;;28.90;16.10;;;;;;;4.55;100.00;96453.31;107153;1255;72563;-78
2023/01/16 10:54:26;;;;;;;30.70;16.10;;;;;;;4.64;100.00;96444.41;106874;1254;61214;-77
2023/01/16 10:56:52;;;;;;;34.10;18.10;;;;;;;4.72;100.00;96440.59;106837;1257;61695;-76
2023/01/16 10:59:19;;;;;;;44.70;24.70;;;;;;;4.77;100.00;96445.15;107026;1261;60676;-78
2023/01/16 11:01:45;;;;;;;43.60;23.20;;;;;;;4.82;100.00;96444.21;106887;1253;70684;-78
2023/01/16 11:04:12;;;;;;;47.30;28.40;;;;;;;4.85;100.00;96437.79;107202;1254;60948;-76
2023/01/16 11:06:41;;;;;;;33.50;21.10;;;;;;;4.88;100.00;96428.71;107391;1254;61034;-78
2023/01/16 11:09:13;;;;;;;80.60;39.80;;;;;;;4.91;100.00;96414.88;108531;1254;61437;-77
2023/01/16 11:20:31;;;;;;;31.50;17.60;;;;;;;5.07;100.00;96396.54;107487;1254;60804;-78
2023/01/16 11:23:04;;;;;;;25.90;15.40;;;;;;;5.15;100.00;96392.59;106840;1254;61104;-79
2023/01/16 11:25:30;;;;;;;60.60;40.00;;;;;;;5.19;100.00;96385.82;107194;1260;74547;-78
2023/01/16 11:27:58;;;;;;;32.20;23.00;;;;;;;5.19;100.00;96383.79;107117;1253;61116;-78
2023/01/16 11:30:33;;;;;;;34.10;21.20;;;;;;;5.26;100.00;96377.65;107006;1257;71443;-76
2023/01/16 11:32:59;;;;;;;36.40;22.80;;;;;;;5.23;100.00;96375.43;107198;1255;59830;-78
2023/01/16 11:35:33;;;;;;;28.50;20.00;;;;;;;5.21;100.00;96368.14;107011;1257;61374;-78
2023/01/16 11:38:00;;;;;;;71.40;42.50;;;;;;;5.26;100.00;96361.04;108340;1254;72298;-79
2023/01/16 11:40:26;;;;;;;53.70;33.60;;;;;;;5.25;100.00;96358.05;107390;1254;70050;-76
2023/01/16 11:46:02;;;;;;;33.70;20.60;;;;;;;5.28;100.00;96348.40;106799;1255;61916;-79
2023/01/16 11:48:44;;;;;;;25.00;16.60;;;;;;;5.36;100.00;96344.17;108339;1254;61460;-78
2023/01/16 11:51:13;;;;;;;23.00;12.00;;;;;;;5.45;100.00;96340.09;107080;1256;74542;-76
2023/01/16 11:53:40;;;;;;;19.30;12.60;;;;;;;5.51;100.00;96329.01;106753;1254;70071;-78
2023/01/16 11:56:31;;;;;;;18.40;11.40;;;;;;;5.57;100.00;96326.02;107247;1255;71546;-79
2023/01/16 11:59:07;;;;;;;16.50;9.40;;;;;;;5.64;100.00;96319.92;108900;1253;59171;-76
2023/01/16 12:04:34;;;;;;;19.60;11.40;;;;;;;5.66;100.00;96305.29;107000;1256;74774;-77
2023/01/16 12:07:13;;;;;;;17.90;9.90;;;;;;;5.69;100.00;96299.85;107580;1252;71064;-76
2023/01/16 12:09:54;;;;;;;20.70;13.60;;;;;;;5.69;100.00;96292.02;107418;1255;72634;-78
2023/01/16 12:15:30;;;;;;;14.70;9.50;;;;;;;5.73;100.00;96274.65;106986;1253;61266;-79
2023/01/16 12:18:12;;;;;;;18.60;12.70;;;;;;;5.71;100.00;96273.98;108410;1254;74576;-77
2023/01/16 12:20:44;;;;;;;18.20;11.40;;;;;;;5.67;100.00;96266.52;107281;1257;71553;-78
2023/01/16 12:23:46;;;;;;;18.90;11.70;;;;;;;5.65;100.00;96258.21;107050;1254;72138;-77